Time;durP1;ratioP1;P1;durP2;ratioP2;P2;SDS_P1;SDS_P2;PMS_P1;PMS_P2;Temp;Humidity;BMP_temperature;BMP_pressure;BME280_temperature;BME280_humidity;BME280_pressure;Samples;Min_cycle;Max_cycle;Signal;HPM_P1;HPM_P2
2023/08/02 00:00:23;;;;;;;;;;;;;;;22.02;60.00;99669.00;5060538;28;4164;-64
2023/08/02 00:02:49;;;;;;;;;;;;;;;22.02;60.20;99666.13;5060927;28;4177;-63
2023/08/02 00:05:16;;;;;;;;;;;;;;;22.02;59.98;99663.25;5061726;28;4005;-64
2023/08/02 00:07:42;;;;;;;;;;;;;;;22.03;60.35;99663.97;5042127;28;4460;-64
2023/08/02 00:10:09;;;;;;;;;;;;;;;22.03;60.02;99661.81;5061646;28;4052;-63
2023/08/02 00:12:35;;;;;;;;;;;;;;;22.03;59.94;99658.94;5059086;28;4155;-63
2023/08/02 00:15:01;;;;;;;;;;;;;;;22.01;60.25;99658.88;5060308;28;3981;-64
2023/08/02 00:17:28;;;;;;;;;;;;;;;22.02;59.96;99669.00;5060138;28;4128;-63
2023/08/02 00:19:54;;;;;;;;;;;;;;;22.00;60.00;99671.84;5061438;28;4090;-63
2023/08/02 00:22:21;;;;;;;;;;;;;;;22.02;60.05;99669.00;5058530;28;4095;-64
2023/08/02 00:24:47;;;;;;;;;;;;;;;22.02;60.19;99671.88;5061002;28;4159;-64
2023/08/02 00:27:13;;;;;;;;;;;;;;;22.00;60.09;99671.84;5061020;28;4166;-64
2023/08/02 00:29:40;;;;;;;;;;;;;;;22.02;60.22;99671.16;5059524;28;4299;-64
2023/08/02 00:32:06;;;;;;;;;;;;;;;22.01;60.16;99673.28;5060870;28;4601;-64
2023/08/02 00:34:33;;;;;;;;;;;;;;;22.01;59.97;99673.28;5059907;28;4809;-64
2023/08/02 00:37:01;;;;;;;;;;;;;;;22.01;60.19;99679.06;5061209;28;5035;-63
2023/08/02 00:39:27;;;;;;;;;;;;;;;22.02;60.20;99680.53;5059919;28;4003;-63
2023/08/02 00:41:54;;;;;;;;;;;;;;;22.02;60.05;99674.78;5059973;28;4164;-64
2023/08/02 00:44:20;;;;;;;;;;;;;;;22.01;60.00;99673.28;5030418;28;4156;-64
2023/08/02 00:46:46;;;;;;;;;;;;;;;22.00;60.13;99683.38;5060232;28;4470;-64
2023/08/02 00:49:13;;;;;;;;;;;;;;;22.01;60.00;99690.59;5060074;28;4127;-64
2023/08/02 00:51:39;;;;;;;;;;;;;;;22.02;60.05;99680.53;5059321;28;4216;-64
2023/08/02 00:54:06;;;;;;;;;;;;;;;22.00;60.13;99686.25;5060114;28;3987;-64
2023/08/02 00:56:32;;;;;;;;;;;;;;;22.02;59.89;99692.06;5030362;28;4134;-64
2023/08/02 00:58:59;;;;;;;;;;;;;;;22.02;60.05;99691.34;5014652;28;4010;-63
2023/08/02 01:01:25;;;;;;;;;;;;;;;22.02;60.13;99691.34;5060565;28;3987;-64
2023/08/02 01:03:52;;;;;;;;;;;;;;;22.00;59.82;99689.13;5059478;28;4112;-64
2023/08/02 01:06:28;;;;;;;;;;;;;;;22.00;59.82;99692.03;5059559;28;3962;-63
2023/08/02 01:09:02;;;;;;;;;;;;;;;22.01;60.12;99690.59;5060202;28;4317;-63
2023/08/02 01:11:30;;;;;;;;;;;;;;;22.00;59.81;99677.59;5060487;28;4162;-63
2023/08/02 01:13:57;;;;;;;;;;;;;;;21.99;59.77;99676.16;5042061;28;4021;-63
2023/08/02 01:16:23;;;;;;;;;;;;;;;22.00;60.09;99683.38;5059466;28;4126;-64
2023/08/02 01:18:59;;;;;;;;;;;;;;;22.01;60.19;99690.59;5041467;28;4113;-64
2023/08/02 01:21:25;;;;;;;;;;;;;;;21.99;60.04;99693.44;5029592;28;4082;-64
2023/08/02 01:23:52;;;;;;;;;;;;;;;22.01;59.95;99684.81;5030643;28;4270;-63
2023/08/02 01:26:19;;;;;;;;;;;;;;;22.00;60.10;99686.25;5060574;28;4139;-63
2023/08/02 01:28:46;;;;;;;;;;;;;;;21.99;60.13;99693.44;5025529;28;4316;-64
2023/08/02 01:31:12;;;;;;;;;;;;;;;22.00;59.72;99689.13;5056027;28;4160;-63
2023/08/02 01:33:43;;;;;;;;;;;;;;;22.00;59.97;99682.66;5057103;28;4631;-64
2023/08/02 01:36:09;;;;;;;;;;;;;;;22.00;59.71;99697.78;5032873;28;4018;-63
2023/08/02 01:38:35;;;;;;;;;;;;;;;21.99;59.75;99693.44;5058893;28;4025;-64
2023/08/02 01:41:02;;;;;;;;;;;;;;;22.00;59.73;99683.38;5043264;28;4115;-64
2023/08/02 01:43:28;;;;;;;;;;;;;;;21.99;59.76;99681.16;5059379;28;3992;-63
2023/08/02 01:45:55;;;;;;;;;;;;;;;21.99;59.70;99681.91;5050850;28;3960;-64
2023/08/02 01:48:22;;;;;;;;;;;;;;;22.00;59.95;99676.88;5059926;28;4140;-63
2023/08/02 01:50:49;;;;;;;;;;;;;;;21.99;59.70;99679.03;5057450;28;3979;-63
2023/08/02 01:53:15;;;;;;;;;;;;;;;21.99;60.02;99676.16;5059735;28;4345;-63
2023/08/02 01:55:42;;;;;;;;;;;;;;;21.98;59.71;99683.31;5058945;28;4368;-64
2023/08/02 01:58:08;;;;;;;;;;;;;;;21.99;59.90;99681.91;5041168;28;4121;-63
2023/08/02 02:00:35;;;;;;;;;;;;;;;21.98;59.71;99680.44;5042173;28;4330;-64
2023/08/02 02:03:01;;;;;;;;;;;;;;;21.98;60.01;99686.22;5047550;28;4478;-64
2023/08/02 02:05:28;;;;;;;;;;;;;;;21.98;59.99;99685.47;5032668;28;4228;-63
2023/08/02 02:07:54;;;;;;;;;;;;;;;21.98;60.05;99680.44;5059636;28;4318;-64
2023/08/02 02:10:21;;;;;;;;;;;;;;;21.98;59.90;99686.22;5059102;28;4060;-63
2023/08/02 02:12:48;;;;;;;;;;;;;;;21.97;60.07;99679.00;5041466;28;4280;-63
2023/08/02 02:15:15;;;;;;;;;;;;;;;21.98;59.77;99680.44;5058544;28;3986;-64
2023/08/02 02:17:42;;;;;;;;;;;;;;;21.98;59.94;99674.69;5057888;28;4158;-63
2023/08/02 02:20:09;;;;;;;;;;;;;;;21.99;59.69;99676.16;5058478;28;4521;-63
2023/08/02 02:22:36;;;;;;;;;;;;;;;21.99;59.92;99670.41;5058430;28;4513;-64
2023/08/02 02:25:03;;;;;;;;;;;;;;;21.98;59.58;99673.94;5061362;28;4129;-64
2023/08/02 02:27:29;;;;;;;;;;;;;;;21.95;59.98;99671.03;5062592;28;4180;-63
2023/08/02 02:29:55;;;;;;;;;;;;;;;21.97;59.76;99667.47;5050285;28;4150;-64
2023/08/02 02:32:22;;;;;;;;;;;;;;;21.96;59.75;99666.72;5061499;28;4233;-64
2023/08/02 02:34:49;;;;;;;;;;;;;;;21.98;59.84;99673.94;5061336;28;4177;-64
2023/08/02 02:37:15;;;;;;;;;;;;;;;21.96;59.66;99666.00;5062774;28;4550;-63
2023/08/02 02:39:41;;;;;;;;;;;;;;;21.97;59.74;99673.22;5060885;28;4016;-63
2023/08/02 02:42:08;;;;;;;;;;;;;;;21.97;59.82;99676.13;5063172;28;4232;-63
2023/08/02 02:44:43;;;;;;;;;;;;;;;21.96;59.96;99671.75;5060389;28;4558;-63
2023/08/02 02:47:10;;;;;;;;;;;;;;;21.98;59.92;99662.44;5062441;28;4062;-62
2023/08/02 02:49:37;;;;;;;;;;;;;;;21.98;59.94;99668.91;5060725;28;4046;-63
2023/08/02 02:52:04;;;;;;;;;;;;;;;21.96;60.06;99668.88;5062151;28;4056;-63
2023/08/02 02:54:30;;;;;;;;;;;;;;;21.97;59.80;99667.47;5061024;28;5040;-63
2023/08/02 02:56:56;;;;;;;;;;;;;;;21.97;59.91;99658.81;5061953;28;4138;-64
2023/08/02 02:59:26;;;;;;;;;;;;;;;21.96;59.69;99666.00;5060792;28;3905;-63
2023/08/02 03:01:53;;;;;;;;;;;;;;;21.96;59.61;99657.34;5059489;28;4089;-63
2023/08/02 03:04:19;;;;;;;;;;;;;;;21.96;59.63;99666.00;5061371;28;4045;-63
2023/08/02 03:06:46;;;;;;;;;;;;;;;21.96;59.64;99674.63;5061498;28;4181;-63
2023/08/02 03:09:12;;;;;;;;;;;;;;;21.96;59.59;99666.00;5062025;28;4508;-63
2023/08/02 03:11:39;;;;;;;;;;;;;;;21.94;59.94;99658.06;5061237;28;5057;-63
2023/08/02 03:14:05;;;;;;;;;;;;;;;21.95;59.71;99678.94;5062222;28;3995;-63
2023/08/02 03:16:32;;;;;;;;;;;;;;;21.93;59.54;99667.38;5061141;28;4122;-63
2023/08/02 03:18:58;;;;;;;;;;;;;;;21.95;59.99;99670.31;5037357;28;3969;-63
2023/08/02 03:21:25;;;;;;;;;;;;;;;21.94;59.96;99668.81;5061078;28;4007;-63
2023/08/02 03:23:51;;;;;;;;;;;;;;;21.96;59.71;99668.88;5060622;28;4119;-63
2023/08/02 03:26:17;;;;;;;;;;;;;;;21.94;59.68;99675.34;5061579;28;5207;-63
2023/08/02 03:28:44;;;;;;;;;;;;;;;21.93;59.68;99673.13;5060726;28;4228;-63
2023/08/02 03:31:10;;;;;;;;;;;;;;;21.94;59.53;99675.34;5061486;28;4126;-63
2023/08/02 03:33:37;;;;;;;;;;;;;;;21.94;59.90;99674.59;5061468;28;4143;-63
2023/08/02 03:36:03;;;;;;;;;;;;;;;21.94;59.62;99674.59;5059754;28;4116;-63
2023/08/02 03:38:29;;;;;;;;;;;;;;;21.93;59.91;99682.50;5061526;28;4165;-63
2023/08/02 03:40:56;;;;;;;;;;;;;;;21.93;59.65;99679.63;5060671;28;4277;-62
2023/08/02 03:43:23;;;;;;;;;;;;;;;21.94;59.62;99674.59;5060994;28;4361;-63
2023/08/02 03:45:49;;;;;;;;;;;;;;;21.94;59.76;99674.59;5060605;28;4191;-63
2023/08/02 03:48:16;;;;;;;;;;;;;;;21.91;59.76;99673.09;5060298;28;3994;-63
2023/08/02 03:50:42;;;;;;;;;;;;;;;21.93;59.95;99681.78;5060469;28;4373;-63
2023/08/02 03:53:09;;;;;;;;;;;;;;;21.93;59.87;99676.03;5060774;28;4355;-63
2023/08/02 03:55:35;;;;;;;;;;;;;;;21.92;59.66;99674.53;5059889;28;4979;-63
2023/08/02 03:58:02;;;;;;;;;;;;;;;21.90;59.73;99675.25;5061278;28;4149;-62
2023/08/02 04:00:28;;;;;;;;;;;;;;;21.93;59.91;99678.91;5060555;28;4214;-63
2023/08/02 04:02:55;;;;;;;;;;;;;;;21.93;59.93;99673.88;5060496;28;4436;-62
2023/08/02 04:05:21;;;;;;;;;;;;;;;21.93;59.50;99684.66;5060873;28;4101;-63
2023/08/02 04:07:47;;;;;;;;;;;;;;;21.93;59.82;99681.78;5059848;28;4146;-63
2023/08/02 04:10:14;;;;;;;;;;;;;;;21.92;59.61;99694.72;5060083;28;4234;-63
2023/08/02 04:12:40;;;;;;;;;;;;;;;21.92;59.77;99686.06;5059149;28;4144;-63
2023/08/02 04:15:07;;;;;;;;;;;;;;;21.93;59.73;99690.44;5060828;28;4257;-63
2023/08/02 04:17:33;;;;;;;;;;;;;;;21.93;59.56;99696.19;5060530;28;4168;-63
2023/08/02 04:20:00;;;;;;;;;;;;;;;21.92;59.58;99691.84;5061165;28;4130;-63
2023/08/02 04:22:29;;;;;;;;;;;;;;;21.92;59.63;99688.94;5059591;28;4322;-63
2023/08/02 04:24:55;;;;;;;;;;;;;;;21.91;59.86;99685.34;5060142;28;4001;-63
2023/08/02 04:27:21;;;;;;;;;;;;;;;21.93;59.65;99687.56;5060076;28;4000;-63
2023/08/02 04:29:48;;;;;;;;;;;;;;;21.92;59.62;99683.19;5059572;28;4203;-63
2023/08/02 04:32:15;;;;;;;;;;;;;;;21.91;59.59;99687.50;5061950;28;4072;-63
2023/08/02 04:34:41;;;;;;;;;;;;;;;21.91;59.58;99688.22;5060030;28;4508;-63
2023/08/02 04:37:07;;;;;;;;;;;;;;;21.91;59.70;99690.38;5060137;28;4276;-63
2023/08/02 04:39:34;;;;;;;;;;;;;;;21.91;59.88;99687.50;5059709;28;4359;-63
2023/08/02 04:42:01;;;;;;;;;;;;;;;21.92;59.54;99683.19;5058710;28;4153;-63
2023/08/02 04:44:28;;;;;;;;;;;;;;;21.92;59.74;99691.84;5061334;28;4148;-63
2023/08/02 04:46:54;;;;;;;;;;;;;;;21.91;59.85;99687.50;5059400;28;4083;-63
2023/08/02 04:49:20;;;;;;;;;;;;;;;21.91;59.62;99684.63;5058860;28;4018;-62
2023/08/02 04:51:47;;;;;;;;;;;;;;;21.90;59.77;99681.00;5058970;28;5438;-63
2023/08/02 04:54:13;;;;;;;;;;;;;;;21.90;59.55;99680.28;5059605;28;4167;-63
2023/08/02 04:56:40;;;;;;;;;;;;;;;21.91;59.75;99673.09;5058696;28;4112;-63
2023/08/02 04:59:06;;;;;;;;;;;;;;;21.89;59.52;99685.31;5060782;28;4160;-63
2023/08/02 05:01:33;;;;;;;;;;;;;;;21.91;59.82;99673.09;5058055;28;4381;-63
2023/08/02 05:03:59;;;;;;;;;;;;;;;21.89;59.48;99665.13;5060691;28;4095;-63
2023/08/02 05:06:26;;;;;;;;;;;;;;;21.90;59.47;99674.53;5061112;28;4500;-63
2023/08/02 05:08:52;;;;;;;;;;;;;;;21.90;59.67;99668.75;5059557;28;4184;-63
2023/08/02 05:11:19;;;;;;;;;;;;;;;21.89;59.56;99662.25;5060147;28;4529;-62
2023/08/02 05:13:45;;;;;;;;;;;;;;;21.90;59.92;99657.22;5058319;28;4138;-63
2023/08/02 05:16:12;;;;;;;;;;;;;;;21.89;59.53;99662.25;5060568;28;4300;-63
2023/08/02 05:18:38;;;;;;;;;;;;;;;21.90;59.61;99668.75;5058817;28;4497;-63
2023/08/02 05:21:11;;;;;;;;;;;;;;;21.90;59.52;99675.25;5059878;28;4021;-63
2023/08/02 05:23:38;;;;;;;;;;;;;;;21.90;59.78;99663.00;5058374;28;4356;-63
2023/08/02 05:26:04;;;;;;;;;;;;;;;21.88;59.39;99660.78;5059625;28;4158;-63
2023/08/02 05:28:31;;;;;;;;;;;;;;;21.89;59.54;99655.75;5060250;28;4155;-63
2023/08/02 05:30:57;;;;;;;;;;;;;;;21.89;59.59;99655.75;5059284;28;4263;-63
2023/08/02 05:33:24;;;;;;;;;;;;;;;21.91;59.53;99652.91;5059837;28;4199;-63
2023/08/02 05:35:50;;;;;;;;;;;;;;;21.90;59.51;99657.22;5059008;28;4118;-62
2023/08/02 05:38:16;;;;;;;;;;;;;;;21.89;59.73;99656.47;5059419;28;4102;-62
2023/08/02 05:40:43;;;;;;;;;;;;;;;21.89;59.61;99655.75;5059728;28;4179;-77
2023/08/02 05:43:09;;;;;;;;;;;;;;;21.90;59.63;99663.00;5058752;28;4181;-63
2023/08/02 05:45:36;;;;;;;;;;;;;;;21.90;59.55;99663.72;5058347;28;4507;-63
2023/08/02 05:48:02;;;;;;;;;;;;;;;21.90;59.73;99665.88;5058430;28;4380;-63
2023/08/02 05:50:29;;;;;;;;;;;;;;;21.89;59.52;99668.00;5059540;28;4034;-63
2023/08/02 05:52:55;;;;;;;;;;;;;;;21.89;59.46;99670.16;5058514;28;4727;-63
2023/08/02 05:55:22;;;;;;;;;;;;;;;21.89;59.50;99668.00;5059574;28;4256;-63
2023/08/02 05:57:48;;;;;;;;;;;;;;;21.89;59.50;99673.78;5057925;28;4210;-62
2023/08/02 06:00:15;;;;;;;;;;;;;;;21.88;59.68;99666.56;5062705;28;4060;-63
2023/08/02 06:02:41;;;;;;;;;;;;;;;21.90;59.72;99663.00;5061524;28;4534;-63
2023/08/02 06:05:07;;;;;;;;;;;;;;;21.82;59.77;99657.06;5062738;28;4277;-62
2023/08/02 06:07:34;;;;;;;;;;;;;;;21.80;59.83;99648.38;5062511;28;4406;-63
2023/08/02 06:10:00;;;;;;;;;;;;;;;21.89;59.79;99670.16;5063425;28;4712;-63
2023/08/02 06:12:27;;;;;;;;;;;;;;;21.91;59.37;99665.16;5063088;28;4183;-62
2023/08/02 06:14:53;;;;;;;;;;;;;;;21.89;59.51;99662.25;5062220;28;4090;-62
2023/08/02 06:17:19;;;;;;;;;;;;;;;21.91;59.42;99652.91;5061906;28;4117;-63
2023/08/02 06:19:46;;;;;;;;;;;;;;;21.91;59.62;99647.16;5062705;28;5018;-63
2023/08/02 06:22:13;;;;;;;;;;;;;;;21.88;59.46;99649.28;5063774;28;4019;-63
2023/08/02 06:24:42;;;;;;;;;;;;;;;21.88;59.34;99649.28;5061720;28;4171;-63
2023/08/02 06:27:08;;;;;;;;;;;;;;;21.89;59.34;99647.13;5063175;28;4200;-63
2023/08/02 06:29:35;;;;;;;;;;;;;;;21.90;59.44;99654.34;5062231;28;4185;-63
2023/08/02 06:32:01;;;;;;;;;;;;;;;21.90;59.47;99657.22;5035530;28;4088;-62
2023/08/02 06:34:28;;;;;;;;;;;;;;;21.89;59.58;99641.34;5063115;28;4135;-63
2023/08/02 06:36:54;;;;;;;;;;;;;;;21.88;59.52;99642.78;5061135;28;4283;-63
2023/08/02 06:39:20;;;;;;;;;;;;;;;21.89;59.38;99652.88;5062484;28;4437;-63
2023/08/02 06:41:47;;;;;;;;;;;;;;;21.89;59.71;99644.22;5062823;28;4027;-63
2023/08/02 06:44:13;;;;;;;;;;;;;;;21.89;59.43;99655.75;5052618;28;5036;-62
2023/08/02 06:46:40;;;;;;;;;;;;;;;21.89;59.52;99644.22;5061831;28;3962;-63
2023/08/02 06:49:07;;;;;;;;;;;;;;;21.90;59.52;99642.81;5062801;28;4546;-63
2023/08/02 06:51:33;;;;;;;;;;;;;;;21.88;59.45;99642.78;5061432;28;4517;-63
2023/08/02 06:53:59;;;;;;;;;;;;;;;21.90;59.50;99634.19;5061162;28;4329;-63
2023/08/02 06:56:26;;;;;;;;;;;;;;;21.89;59.38;99633.44;5062307;28;4148;-63
2023/08/02 06:58:52;;;;;;;;;;;;;;;21.89;59.32;99633.44;5062082;28;3946;-63
2023/08/02 07:01:19;;;;;;;;;;;;;;;21.89;59.50;99638.47;5062898;28;4531;-63
2023/08/02 07:03:46;;;;;;;;;;;;;;;21.88;59.37;99631.25;5060863;28;4022;-63
2023/08/02 07:06:19;;;;;;;;;;;;;;;21.90;59.29;99619.78;5062455;28;4201;-63
2023/08/02 07:08:45;;;;;;;;;;;;;;;21.89;59.51;99610.38;5061449;28;4121;-62
2023/08/02 07:11:12;;;;;;;;;;;;;;;21.89;59.24;99624.78;5042826;28;4034;-63
2023/08/02 07:13:55;;;;;;;;;;;;;;;21.89;59.30;99607.50;5059922;28;4081;-62
2023/08/02 07:16:22;;;;;;;;;;;;;;;21.90;59.40;99614.00;5061126;28;4138;-63
2023/08/02 07:18:48;;;;;;;;;;;;;;;21.91;59.65;99618.34;5060759;28;4256;-63
2023/08/02 07:21:15;;;;;;;;;;;;;;;21.90;59.46;99614.00;5061903;28;4202;-63
2023/08/02 07:23:41;;;;;;;;;;;;;;;21.90;59.56;99616.88;5060938;28;4006;-63
2023/08/02 07:26:09;;;;;;;;;;;;;;;21.89;59.36;99603.88;5060871;28;4150;-63
2023/08/02 07:28:35;;;;;;;;;;;;;;;21.90;59.59;99611.13;5060679;28;4502;-63
2023/08/02 07:31:08;;;;;;;;;;;;;;;21.90;59.30;99606.09;5061352;28;4310;-63
2023/08/02 07:33:35;;;;;;;;;;;;;;;21.90;59.38;99605.38;5060928;28;4283;-63
2023/08/02 07:36:01;;;;;;;;;;;;;;;21.91;59.62;99603.94;5062277;28;4181;-63
2023/08/02 07:38:28;;;;;;;;;;;;;;;21.91;59.41;99604.66;5061364;28;4442;-62
2023/08/02 07:40:54;;;;;;;;;;;;;;;21.91;59.30;99606.81;5061097;28;4006;-63
2023/08/02 07:43:21;;;;;;;;;;;;;;;21.91;59.28;99601.03;5061045;28;4098;-63
2023/08/02 07:45:47;;;;;;;;;;;;;;;21.90;59.23;99603.22;5060590;28;4016;-63
2023/08/02 07:48:14;;;;;;;;;;;;;;;21.91;59.17;99601.03;5061167;28;4128;-63
2023/08/02 07:50:40;;;;;;;;;;;;;;;21.91;59.60;99595.28;5060725;28;3999;-63
2023/08/02 07:53:07;;;;;;;;;;;;;;;21.91;59.19;99592.41;5061281;28;4111;-62
2023/08/02 07:55:33;;;;;;;;;;;;;;;21.91;59.26;99589.53;5060895;28;4088;-63
2023/08/02 07:57:59;;;;;;;;;;;;;;;21.91;59.22;99595.28;5060769;28;4162;-63
2023/08/02 08:00:26;;;;;;;;;;;;;;;21.90;59.31;99603.22;5060930;28;3916;-63
2023/08/02 08:02:52;;;;;;;;;;;;;;;21.90;59.14;99611.84;5060474;28;4423;-63
2023/08/02 08:05:19;;;;;;;;;;;;;;;21.92;59.51;99602.50;5060704;28;4168;-62
2023/08/02 08:07:45;;;;;;;;;;;;;;;21.92;59.28;99614.03;5060236;28;4257;-63
2023/08/02 08:10:12;;;;;;;;;;;;;;;21.91;59.17;99609.69;5059732;28;4165;-63
2023/08/02 08:12:38;;;;;;;;;;;;;;;21.92;59.18;99596.72;5059951;28;4592;-63
2023/08/02 08:15:05;;;;;;;;;;;;;;;21.92;59.34;99614.78;5060509;28;4502;-63
2023/08/02 08:17:31;;;;;;;;;;;;;;;21.93;59.42;99609.72;5062094;28;4184;-63
2023/08/02 08:19:58;;;;;;;;;;;;;;;21.92;59.11;99596.72;5059715;28;4033;-63
2023/08/02 08:22:28;;;;;;;;;;;;;;;21.92;59.50;99591.72;5059850;28;4210;-63
2023/08/02 08:24:55;;;;;;;;;;;;;;;21.92;59.01;99597.47;5060213;28;4089;-63
2023/08/02 08:27:22;;;;;;;;;;;;;;;21.93;59.04;99593.16;5061738;28;4043;-63
2023/08/02 08:29:48;;;;;;;;;;;;;;;21.93;59.06;99589.56;5059976;28;4023;-63
2023/08/02 08:32:15;;;;;;;;;;;;;;;21.94;59.09;99582.38;5060736;28;4255;-63
2023/08/02 08:34:42;;;;;;;;;;;;;;;21.92;59.02;99573.69;5059437;28;4225;-63
2023/08/02 08:37:08;;;;;;;;;;;;;;;21.93;59.04;99584.53;5061160;28;4201;-63
2023/08/02 08:39:35;;;;;;;;;;;;;;;21.92;59.12;99567.91;5060714;28;4150;-63
2023/08/02 08:42:05;;;;;;;;;;;;;;;21.92;59.34;99562.91;5060716;28;4078;-63
2023/08/02 08:44:31;;;;;;;;;;;;;;;21.93;58.89;99549.22;5060484;28;4313;-62
2023/08/02 08:47:00;;;;;;;;;;;;;;;21.94;59.07;99553.53;5059431;28;4018;-63
2023/08/02 08:49:27;;;;;;;;;;;;;;;21.93;59.31;99546.34;5043371;28;4109;-63
2023/08/02 08:51:53;;;;;;;;;;;;;;;21.93;59.08;99552.09;5060491;28;4268;-63
2023/08/02 08:54:20;;;;;;;;;;;;;;;21.93;59.03;99552.09;5034888;28;3998;-63
2023/08/02 08:56:47;;;;;;;;;;;;;;;21.93;59.28;99546.34;5058228;28;4135;-63
2023/08/02 08:59:13;;;;;;;;;;;;;;;21.94;58.98;99536.25;5059262;28;4517;-63
2023/08/02 09:01:40;;;;;;;;;;;;;;;21.94;59.12;99530.50;5041744;28;4795;-63
2023/08/02 09:04:07;;;;;;;;;;;;;;;21.93;58.95;99529.03;5031087;28;4085;-63
2023/08/02 09:06:33;;;;;;;;;;;;;;;21.94;58.93;99536.25;5042371;28;4121;-63
2023/08/02 09:09:00;;;;;;;;;;;;;;;21.95;59.10;99543.50;5059536;28;4091;-63
2023/08/02 09:11:27;;;;;;;;;;;;;;;21.94;59.01;99536.25;5059914;28;4243;-63
2023/08/02 09:14:12;;;;;;;;;;;;;;;21.94;58.93;99536.25;5029728;28;4145;-63
2023/08/02 09:16:55;;;;;;;;;;;;;;;21.93;59.19;99534.81;5059626;28;4043;-63
2023/08/02 09:19:23;;;;;;;;;;;;;;;21.94;58.94;99530.50;5058701;28;3980;-63
2023/08/02 09:22:04;;;;;;;;;;;;;;;21.93;58.99;99524.00;5059284;28;4100;-63
2023/08/02 09:24:32;;;;;;;;;;;;;;;21.94;59.28;99524.72;5060285;28;4155;-63
2023/08/02 09:26:58;;;;;;;;;;;;;;;21.95;59.28;99529.09;5058688;28;4178;-63
2023/08/02 09:29:25;;;;;;;;;;;;;;;21.94;59.09;99521.84;5059573;28;4147;-63
2023/08/02 09:31:52;;;;;;;;;;;;;;;21.93;59.13;99529.75;5057728;28;4108;-63
2023/08/02 09:34:19;;;;;;;;;;;;;;;21.95;59.08;99520.44;5059007;28;4223;-63
2023/08/02 09:36:45;;;;;;;;;;;;;;;21.94;58.88;99513.19;5059899;28;3926;-63
2023/08/02 09:39:15;;;;;;;;;;;;;;;21.94;59.08;99513.19;5060364;28;4525;-63
2023/08/02 09:41:41;;;;;;;;;;;;;;;21.94;59.17;99513.19;5059621;28;4134;-63
2023/08/02 09:44:25;;;;;;;;;;;;;;;21.94;59.06;99511.06;5059520;28;4373;-63
2023/08/02 09:46:52;;;;;;;;;;;;;;;21.94;58.98;99495.91;5058677;28;4347;-63
2023/08/02 09:49:20;;;;;;;;;;;;;;;21.95;58.96;99497.38;5059433;28;4043;-63
2023/08/02 09:51:46;;;;;;;;;;;;;;;21.95;58.98;99485.84;5032647;28;4433;-63
2023/08/02 09:54:13;;;;;;;;;;;;;;;21.94;58.93;99478.63;5060951;28;4411;-63
2023/08/02 09:56:40;;;;;;;;;;;;;;;21.94;58.87;99482.25;5059325;28;4429;-63
2023/08/02 09:59:07;;;;;;;;;;;;;;;21.94;58.91;99475.72;5060401;28;3967;-63
2023/08/02 10:01:33;;;;;;;;;;;;;;;21.94;59.01;99478.63;5060637;28;4001;-63
2023/08/02 10:04:04;;;;;;;;;;;;;;;21.94;59.00;99472.84;5060515;28;4194;-63
2023/08/02 10:06:37;;;;;;;;;;;;;;;21.94;58.93;99479.38;5059465;28;4157;-63
2023/08/02 10:09:08;;;;;;;;;;;;;;;21.94;58.97;99462.06;5058848;28;3938;-63
2023/08/02 10:11:37;;;;;;;;;;;;;;;21.94;58.97;99455.56;5058878;28;4221;-63
2023/08/02 10:14:03;;;;;;;;;;;;;;;21.94;58.93;99462.06;5031376;28;4148;-62
2023/08/02 10:16:30;;;;;;;;;;;;;;;21.94;59.20;99453.44;5060195;28;4141;-63
2023/08/02 10:18:57;;;;;;;;;;;;;;;21.94;58.94;99449.78;5058149;28;4055;-63
2023/08/02 10:21:23;;;;;;;;;;;;;;;21.94;59.01;99452.69;5059593;28;4444;-63
2023/08/02 10:23:50;;;;;;;;;;;;;;;21.95;59.29;99445.50;5030458;28;4196;-63
2023/08/02 10:26:16;;;;;;;;;;;;;;;21.94;59.01;99456.31;5059414;28;3937;-63
2023/08/02 10:28:42;;;;;;;;;;;;;;;21.95;58.95;99451.25;5058198;28;4322;-63
2023/08/02 10:31:09;;;;;;;;;;;;;;;21.95;59.32;99454.16;5059087;28;4563;-63
2023/08/02 10:33:35;;;;;;;;;;;;;;;21.95;58.91;99459.91;5030629;28;4126;-63
2023/08/02 10:36:02;;;;;;;;;;;;;;;21.95;58.87;99460.63;5057818;28;4495;-63
2023/08/02 10:38:38;;;;;;;;;;;;;;;21.95;59.27;99451.25;5060414;28;4275;-63
2023/08/02 10:41:11;;;;;;;;;;;;;;;21.95;58.91;99446.22;5057457;28;4126;-63
2023/08/02 10:43:53;;;;;;;;;;;;;;;21.95;58.94;99431.09;5059101;28;4152;-63
2023/08/02 10:46:22;;;;;;;;;;;;;;;21.95;59.00;99422.44;5061951;28;4241;-63
2023/08/02 10:48:49;;;;;;;;;;;;;;;21.95;58.95;99428.22;5062122;28;4118;-63
2023/08/02 10:51:24;;;;;;;;;;;;;;;21.96;59.08;99423.91;5032348;28;4291;-63
2023/08/02 10:54:09;;;;;;;;;;;;;;;21.95;58.92;99423.16;5061660;28;4087;-63
2023/08/02 10:56:53;;;;;;;;;;;;;;;21.96;58.88;99423.91;5062826;28;4092;-63
2023/08/02 10:59:22;;;;;;;;;;;;;;;21.96;58.94;99423.91;5045116;28;4038;-63
2023/08/02 11:02:18;;;;;;;;;;;;;;;21.95;59.23;99422.44;5061152;28;4106;-63
2023/08/02 11:04:45;;;;;;;;;;;;;;;21.95;58.97;99410.91;5045344;28;4143;-63
2023/08/02 11:07:18;;;;;;;;;;;;;;;21.96;59.04;99406.59;5061839;28;4025;-63
2023/08/02 11:09:45;;;;;;;;;;;;;;;21.96;58.94;99400.84;5061513;28;4107;-63
2023/08/02 11:12:18;;;;;;;;;;;;;;;21.95;58.93;99394.34;5062450;28;4084;-63
2023/08/02 11:14:45;;;;;;;;;;;;;;;21.96;59.13;99389.31;5062442;28;3927;-63
2023/08/02 11:17:16;;;;;;;;;;;;;;;21.96;59.02;99377.78;5061195;28;4093;-63
2023/08/02 11:19:46;;;;;;;;;;;;;;;21.95;59.28;99364.81;5061614;28;4181;-63
2023/08/02 11:22:35;;;;;;;;;;;;;;;21.95;59.05;99365.53;5045392;28;3971;-63
2023/08/02 11:25:03;;;;;;;;;;;;;;;21.95;59.04;99364.81;5060744;28;4070;-63
2023/08/02 11:27:29;;;;;;;;;;;;;;;21.97;59.25;99353.31;5062113;28;4281;-63
2023/08/02 11:29:59;;;;;;;;;;;;;;;21.97;59.05;99356.19;5061429;28;4197;-63
2023/08/02 11:32:25;;;;;;;;;;;;;;;21.96;58.99;99343.94;5061095;28;4157;-63
2023/08/02 11:34:52;;;;;;;;;;;;;;;21.97;59.10;99344.69;5060066;28;4361;-63
2023/08/02 11:37:19;;;;;;;;;;;;;;;21.97;59.20;99344.69;5027346;28;4375;-63
2023/08/02 11:39:55;;;;;;;;;;;;;;;21.96;59.22;99341.03;5060696;28;4215;-62
2023/08/02 11:42:25;;;;;;;;;;;;;;;21.97;59.11;99341.78;5062033;28;4053;-62
2023/08/02 11:44:51;;;;;;;;;;;;;;;21.96;59.09;99343.94;5059835;28;4357;-66
2023/08/02 11:47:34;;;;;;;;;;;;;;;21.96;59.34;99343.19;5060764;28;4263;-63
2023/08/02 11:50:01;;;;;;;;;;;;;;;21.97;59.12;99341.78;5060701;28;5100;-63
2023/08/02 11:52:31;;;;;;;;;;;;;;;21.96;59.27;99346.09;5060824;28;4136;-63
2023/08/02 11:54:57;;;;;;;;;;;;;;;21.96;59.16;99340.31;5060504;28;4238;-63
2023/08/02 11:57:24;;;;;;;;;;;;;;;21.95;59.06;99342.47;5059250;28;3986;-63
2023/08/02 11:59:51;;;;;;;;;;;;;;;21.96;59.39;99337.44;5061736;28;4092;-63
2023/08/02 12:02:35;;;;;;;;;;;;;;;21.96;59.06;99340.31;5060526;28;3984;-63
2023/08/02 12:05:05;;;;;;;;;;;;;;;21.96;59.07;99346.09;5060962;28;4205;-63
2023/08/02 12:07:32;;;;;;;;;;;;;;;21.95;59.11;99330.94;5033324;28;4311;-63
2023/08/02 12:09:58;;;;;;;;;;;;;;;21.95;59.15;99313.66;5061143;28;4325;-63
2023/08/02 12:12:29;;;;;;;;;;;;;;;21.95;59.06;99312.94;5060886;28;4015;-63
2023/08/02 12:14:55;;;;;;;;;;;;;;;21.94;59.23;99317.97;5060155;28;4083;-63
2023/08/02 12:17:22;;;;;;;;;;;;;;;21.98;59.49;99316.56;5060094;28;4825;-63
2023/08/02 12:19:49;;;;;;;;;;;;;;;21.96;59.25;99320.16;5060231;28;4216;-63
2023/08/02 12:22:15;;;;;;;;;;;;;;;21.96;59.23;99314.38;5060328;28;4131;-62
2023/08/02 12:24:42;;;;;;;;;;;;;;;21.97;59.44;99304.31;5060438;28;4080;-63
2023/08/02 12:27:15;;;;;;;;;;;;;;;21.96;59.15;99299.97;5031379;28;4145;-63
2023/08/02 12:29:42;;;;;;;;;;;;;;;21.97;59.30;99298.56;5060912;28;4100;-63
2023/08/02 12:32:09;;;;;;;;;;;;;;;21.97;59.17;99289.91;5058593;28;4010;-63
2023/08/02 12:34:38;;;;;;;;;;;;;;;21.96;59.26;99285.56;5060716;28;4043;-64
2023/08/02 12:37:05;;;;;;;;;;;;;;;21.97;59.15;99281.28;5060689;28;4389;-63
2023/08/02 12:39:31;;;;;;;;;;;;;;;21.96;59.11;99280.53;5060399;28;4455;-63
2023/08/02 12:41:58;;;;;;;;;;;;;;;21.97;59.08;99278.38;5060193;28;3929;-63
2023/08/02 12:44:24;;;;;;;;;;;;;;;21.98;59.38;99282.00;5061088;28;4155;-63
2023/08/02 12:46:51;;;;;;;;;;;;;;;21.98;59.27;99273.34;5059030;28;4510;-63
2023/08/02 12:49:17;;;;;;;;;;;;;;;21.97;59.07;99266.88;5060467;28;4158;-62
2023/08/02 12:51:43;;;;;;;;;;;;;;;21.98;59.05;99265.44;5059388;28;4485;-63
2023/08/02 12:54:10;;;;;;;;;;;;;;;21.97;59.47;99263.97;5059287;28;4209;-62
2023/08/02 12:56:36;;;;;;;;;;;;;;;21.99;59.03;99254.63;5059678;28;4136;-63
2023/08/02 12:59:03;;;;;;;;;;;;;;;21.98;59.07;99259.66;5058950;28;4440;-63